Time;durP1;ratioP1;P1;durP2;ratioP2;P2;SDS_P1;SDS_P2;PMS_P1;PMS_P2;Temp;Humidity;BMP_temperature;BMP_pressure;BME280_temperature;BME280_humidity;BME280_pressure;Samples;Min_cycle;Max_cycle;Signal;HPM_P1;HPM_P2
2023/05/06 00:02:21;;;;;;;3.43;3.23;;;;;;;;;;5047815;28;20440;-77
2023/05/06 00:04:56;;;;;;;3.10;2.90;;;;;;;;;;5044775;28;20822;-78
2023/05/06 00:07:31;;;;;;;3.30;3.10;;;;;;;;;;5042961;28;20512;-77
2023/05/06 00:10:08;;;;;;;3.27;3.07;;;;;;;;;;5037311;28;20481;-76
2023/05/06 00:12:42;;;;;;;3.30;3.00;;;;;;;;;;5034799;28;20517;-77
2023/05/06 00:15:11;;;;;;;2.63;2.53;;;;;;;;;;5035403;28;20454;-78
2023/05/06 00:17:42;;;;;;;7.20;2.73;;;;;;;;;;5036800;28;20505;-77
2023/05/06 00:20:15;;;;;;;3.00;2.80;;;;;;;;;;5037364;28;20458;-78
2023/05/06 00:22:43;;;;;;;2.80;2.70;;;;;;;;;;5038079;28;20485;-77
2023/05/06 00:25:12;;;;;;;3.57;2.90;;;;;;;;;;5036602;28;21060;-76
2023/05/06 00:27:47;;;;;;;3.27;3.07;;;;;;;;;;5034743;28;20454;-77
2023/05/06 00:30:41;;;;;;;3.10;2.80;;;;;;;;;;5034754;28;20484;-77
2023/05/06 00:33:09;;;;;;;3.20;3.00;;;;;;;;;;5034311;28;20461;-77
2023/05/06 00:35:50;;;;;;;3.10;2.90;;;;;;;;;;5034457;28;20467;-77
2023/05/06 00:38:36;;;;;;;3.50;3.30;;;;;;;;;;5034645;28;20454;-77
2023/05/06 00:41:12;;;;;;;4.20;2.97;;;;;;;;;;5034085;28;20450;-77
2023/05/06 00:43:48;;;;;;;3.07;2.87;;;;;;;;;;5033901;28;20484;-76
2023/05/06 00:46:18;;;;;;;3.40;2.50;;;;;;;;;;5034249;28;20470;-77
2023/05/06 00:48:47;;;;;;;2.80;2.70;;;;;;;;;;5037983;28;20472;-77
2023/05/06 00:51:17;;;;;;;3.50;3.20;;;;;;;;;;5049498;28;20490;-77
2023/05/06 00:53:50;;;;;;;2.63;2.53;;;;;;;;;;5048827;28;20457;-76
2023/05/06 00:56:32;;;;;;;3.67;3.30;;;;;;;;;;5048760;28;20470;-79
2023/05/06 00:59:00;;;;;;;3.30;3.10;;;;;;;;;;5033614;28;20463;-77
2023/05/06 01:01:28;;;;;;;3.17;2.87;;;;;;;;;;5049725;28;20446;-77
2023/05/06 01:03:57;;;;;;;3.37;3.07;;;;;;;;;;5049897;28;20457;-78
2023/05/06 01:06:31;;;;;;;3.33;3.07;;;;;;;;;;5049563;28;20446;-77
2023/05/06 01:09:02;;;;;;;5.47;3.27;;;;;;;;;;5050154;28;20453;-77
2023/05/06 01:11:39;;;;;;;3.30;3.00;;;;;;;;;;5042941;28;20478;-76
2023/05/06 01:14:13;;;;;;;3.00;2.80;;;;;;;;;;5035720;28;20450;-77
2023/05/06 01:16:56;;;;;;;3.80;3.03;;;;;;;;;;5034511;28;20458;-77
2023/05/06 01:19:38;;;;;;;3.07;2.90;;;;;;;;;;5034208;28;20482;-77
2023/05/06 01:22:12;;;;;;;3.30;3.10;;;;;;;;;;5035140;28;20928;-79
2023/05/06 01:24:53;;;;;;;3.00;2.80;;;;;;;;;;5035196;28;20529;-78
2023/05/06 01:27:27;;;;;;;3.70;3.40;;;;;;;;;;5035422;28;20457;-77
2023/05/06 01:30:02;;;;;;;3.63;3.33;;;;;;;;;;5034925;28;20445;-77
2023/05/06 01:32:37;;;;;;;3.50;3.23;;;;;;;;;;5035517;28;20991;-76
2023/05/06 01:38:10;;;;;;;4.10;3.40;;;;;;;;;;5035161;28;20466;-76
2023/05/06 01:41:06;;;;;;;3.03;2.83;;;;;;;;;;5037283;28;20767;-77
2023/05/06 01:43:44;;;;;;;3.20;2.93;;;;;;;;;;5036154;28;20450;-76
2023/05/06 01:46:20;;;;;;;4.43;3.43;;;;;;;;;;5037666;28;20963;-77
2023/05/06 01:51:55;;;;;;;3.17;2.97;;;;;;;;;;5022051;28;20498;-77
2023/05/06 01:54:24;;;;;;;3.10;2.80;;;;;;;;;;5036818;28;20509;-78
2023/05/06 01:56:57;;;;;;;2.90;2.70;;;;;;;;;;5035188;28;20462;-77
2023/05/06 01:59:55;;;;;;;3.27;2.90;;;;;;;;;;5038206;28;20479;-77
2023/05/06 02:02:23;;;;;;;2.80;2.70;;;;;;;;;;5044171;28;20448;-78
2023/05/06 02:04:52;;;;;;;3.40;3.20;;;;;;;;;;5047635;28;20447;-79
2023/05/06 02:07:21;;;;;;;3.80;3.50;;;;;;;;;;5048981;28;20466;-77
2023/05/06 02:09:51;;;;;;;5.53;3.20;;;;;;;;;;5048092;28;20571;-77
2023/05/06 02:12:20;;;;;;;4.57;2.97;;;;;;;;;;5048720;28;21119;-78
2023/05/06 02:14:48;;;;;;;3.27;3.07;;;;;;;;;;5048724;28;20522;-77
2023/05/06 02:17:15;;;;;;;3.60;3.40;;;;;;;;;;5049808;28;20496;-78
2023/05/06 02:19:47;;;;;;;2.90;2.70;;;;;;;;;;5048518;28;20463;-79
2023/05/06 02:22:21;;;;;;;4.23;3.93;;;;;;;;;;5049362;28;20434;-77
2023/05/06 02:24:51;;;;;;;5.50;3.73;;;;;;;;;;5047997;28;20441;-77
2023/05/06 02:27:25;;;;;;;4.00;3.70;;;;;;;;;;5043598;28;20450;-79
2023/05/06 02:29:59;;;;;;;4.00;3.50;;;;;;;;;;5043951;28;20474;-77
2023/05/06 02:35:24;;;;;;;4.07;3.67;;;;;;;;;;5031747;28;20431;-77
2023/05/06 02:40:47;;;;;;;4.47;3.73;;;;;;;;;;5031396;28;21116;-77
2023/05/06 02:43:28;;;;;;;7.43;4.00;;;;;;;;;;5032589;28;20944;-77
2023/05/06 02:46:03;;;;;;;3.80;3.50;;;;;;;;;;5032882;28;20948;-77
2023/05/06 02:48:34;;;;;;;3.83;3.53;;;;;;;;;;5034469;28;20524;-77
2023/05/06 02:51:20;;;;;;;3.73;3.43;;;;;;;;;;5035554;28;20508;-78
2023/05/06 02:54:26;;;;;;;4.70;4.40;;;;;;;;;;5033044;28;20480;-77
2023/05/06 02:57:23;;;;;;;;;;;;;;;;;;;;;
2023/05/06 03:00:04;;;;;;;4.13;3.73;;;;;;;;;;5035688;28;20534;-77
2023/05/06 03:02:38;;;;;;;4.20;3.90;;;;;;;;;;5033621;28;20587;-78
2023/05/06 03:05:06;;;;;;;4.60;4.10;;;;;;;;;;5033940;28;20438;-76
2023/05/06 03:07:49;;;;;;;4.23;3.93;;;;;;;;;;5035367;28;20458;-77
2023/05/06 03:10:31;;;;;;;4.30;3.90;;;;;;;;;;5038325;28;20477;-77
2023/05/06 03:13:05;;;;;;;4.40;4.10;;;;;;;;;;5039192;28;20544;-77
2023/05/06 03:15:40;;;;;;;3.40;3.20;;;;;;;;;;5032577;28;20519;-77
2023/05/06 03:18:10;;;;;;;6.13;5.00;;;;;;;;;;5032410;28;20495;-77
2023/05/06 03:20:53;;;;;;;4.53;4.23;;;;;;;;;;5032907;28;20461;-78
2023/05/06 03:23:29;;;;;;;4.43;4.03;;;;;;;;;;5032532;28;20541;-76
2023/05/06 03:29:07;;;;;;;4.00;3.73;;;;;;;;;;5036186;28;20458;-77
2023/05/06 03:31:44;;;;;;;5.37;5.07;;;;;;;;;;5038807;28;20478;-77
2023/05/06 03:37:07;;;;;;;5.17;4.67;;;;;;;;;;5041677;28;20454;-77
2023/05/06 03:39:39;;;;;;;4.80;4.40;;;;;;;;;;5042586;28;20489;-77
2023/05/06 03:42:20;;;;;;;4.80;4.40;;;;;;;;;;5043066;28;20419;-78
2023/05/06 03:44:50;;;;;;;5.10;4.70;;;;;;;;;;5042305;28;20431;-79
2023/05/06 03:47:23;;;;;;;4.23;3.93;;;;;;;;;;5042365;28;20604;-77
2023/05/06 03:49:52;;;;;;;4.30;4.00;;;;;;;;;;5042623;28;20470;-77
2023/05/06 03:52:22;;;;;;;5.00;4.50;;;;;;;;;;5042595;28;20549;-77
2023/05/06 03:54:59;;;;;;;4.70;4.40;;;;;;;;;;5044209;28;20510;-78
2023/05/06 03:57:29;;;;;;;5.00;4.60;;;;;;;;;;5043176;28;20557;-77
2023/05/06 04:00:14;;;;;;;5.17;4.53;;;;;;;;;;5042357;28;21069;-77
2023/05/06 04:02:42;;;;;;;4.50;4.10;;;;;;;;;;5042293;28;20541;-78
2023/05/06 04:05:19;;;;;;;4.20;3.90;;;;;;;;;;5041853;28;20450;-77
2023/05/06 04:07:57;;;;;;;4.50;4.20;;;;;;;;;;5041798;28;20454;-79
2023/05/06 04:10:28;;;;;;;4.77;4.37;;;;;;;;;;5041237;28;20484;-77
2023/05/06 04:12:57;;;;;;;5.00;4.70;;;;;;;;;;5040542;28;20593;-77
2023/05/06 04:15:40;;;;;;;4.73;4.40;;;;;;;;;;5039260;28;20784;-78
2023/05/06 04:18:17;;;;;;;5.30;4.90;;;;;;;;;;5038734;28;20498;-78
2023/05/06 04:20:48;;;;;;;5.60;4.70;;;;;;;;;;5037324;28;20485;-78
2023/05/06 04:23:21;;;;;;;5.70;5.30;;;;;;;;;;5037819;28;20447;-76
2023/05/06 04:25:49;;;;;;;5.13;4.73;;;;;;;;;;5037211;28;21102;-78
2023/05/06 04:28:27;;;;;;;5.67;5.27;;;;;;;;;;5037046;28;20474;-77
2023/05/06 04:31:01;;;;;;;4.90;4.40;;;;;;;;;;5036979;28;20510;-78
2023/05/06 04:33:33;;;;;;;5.33;4.83;;;;;;;;;;5037172;28;20474;-77
2023/05/06 04:36:02;;;;;;;6.70;5.00;;;;;;;;;;5036596;28;20450;-78
2023/05/06 04:38:39;;;;;;;5.07;4.67;;;;;;;;;;5037448;28;20581;-77
2023/05/06 04:41:15;;;;;;;4.70;4.40;;;;;;;;;;5038182;28;20473;-76
2023/05/06 04:43:51;;;;;;;5.53;5.03;;;;;;;;;;5034897;28;20998;-78
2023/05/06 04:46:35;;;;;;;6.87;5.20;;;;;;;;;;5037937;28;20465;-77
2023/05/06 04:49:03;;;;;;;5.70;5.20;;;;;;;;;;5037200;28;20561;-76
2023/05/06 04:51:36;;;;;;;5.50;5.10;;;;;;;;;;5039118;28;20936;-77
2023/05/06 04:54:27;;;;;;;5.53;5.13;;;;;;;;;;5041082;28;20456;-78
2023/05/06 04:57:00;;;;;;;5.73;5.20;;;;;;;;;;5038557;28;20459;-76
2023/05/06 04:59:33;;;;;;;6.63;5.70;;;;;;;;;;5042430;28;20462;-77
2023/05/06 05:02:04;;;;;;;5.60;5.20;;;;;;;;;;5045135;28;20450;-77
2023/05/06 05:04:31;;;;;;;6.00;5.43;;;;;;;;;;5049189;28;20447;-77
2023/05/06 05:06:58;;;;;;;4.90;4.60;;;;;;;;;;5048833;28;20442;-76
2023/05/06 05:09:29;;;;;;;4.83;4.33;;;;;;;;;;5049755;28;20463;-77
2023/05/06 05:12:16;;;;;;;5.23;4.67;;;;;;;;;;5048763;28;20478;-77
2023/05/06 05:15:02;;;;;;;5.83;5.20;;;;;;;;;;5049365;28;20446;-77
2023/05/06 05:17:36;;;;;;;7.50;6.90;;;;;;;;;;5049719;28;20446;-78
2023/05/06 05:20:08;;;;;;;8.20;5.23;;;;;;;;;;5050896;28;20461;-77
2023/05/06 05:22:35;;;;;;;4.90;4.50;;;;;;;;;;5051271;28;20427;-77
2023/05/06 05:25:06;;;;;;;5.20;4.80;;;;;;;;;;5042117;28;20534;-78
2023/05/06 05:27:35;;;;;;;6.07;4.30;;;;;;;;;;5037190;28;20434;-77
2023/05/06 05:30:03;;;;;;;6.33;4.60;;;;;;;;;;5037203;28;20548;-77
2023/05/06 05:32:44;;;;;;;4.93;4.63;;;;;;;;;;5035893;28;20506;-78
2023/05/06 05:38:14;;;;;;;4.60;4.17;;;;;;;;;;5035703;28;20474;-78
2023/05/06 05:40:55;;;;;;;4.60;4.20;;;;;;;;;;5035931;28;20476;-78
2023/05/06 05:43:28;;;;;;;5.33;4.90;;;;;;;;;;5035754;28;20438;-77
2023/05/06 05:46:00;;;;;;;5.10;4.70;;;;;;;;;;5035776;28;20488;-78
2023/05/06 05:48:43;;;;;;;5.33;4.83;;;;;;;;;;5036596;28;20501;-77
2023/05/06 05:54:48;;;;;;;6.27;5.63;;;;;;;;;;5024536;28;20437;-77
2023/05/06 05:57:17;;;;;;;4.60;4.20;;;;;;;;;;5034729;28;20816;-77
2023/05/06 05:59:47;;;;;;;4.80;4.40;;;;;;;;;;5033885;28;21022;-77
2023/05/06 06:02:21;;;;;;;5.90;5.27;;;;;;;;;;5034118;28;20968;-76
2023/05/06 06:04:51;;;;;;;3.90;3.70;;;;;;;;;;5033035;28;20951;-77
2023/05/06 06:07:26;;;;;;;6.87;4.00;;;;;;;;;;5034089;28;20458;-76
2023/05/06 06:10:08;;;;;;;4.23;3.90;;;;;;;;;;5033940;28;20536;-76
2023/05/06 06:12:44;;;;;;;4.23;3.93;;;;;;;;;;5033188;28;20582;-76
2023/05/06 06:15:17;;;;;;;2.70;2.50;;;;;;;;;;5033990;28;20837;-78
2023/05/06 06:17:55;;;;;;;2.63;2.43;;;;;;;;;;5032288;28;20450;-77
2023/05/06 06:20:31;;;;;;;2.70;2.53;;;;;;;;;;5032931;28;20472;-78
2023/05/06 06:23:12;;;;;;;3.23;2.80;;;;;;;;;;5033097;28;20446;-78
2023/05/06 06:25:45;;;;;;;3.13;2.83;;;;;;;;;;5034079;28;20481;-77
2023/05/06 06:28:13;;;;;;;2.60;2.40;;;;;;;;;;5033892;28;20478;-76
2023/05/06 06:30:46;;;;;;;6.23;2.80;;;;;;;;;;5035401;28;20542;-78
2023/05/06 06:33:22;;;;;;;3.00;2.47;;;;;;;;;;5033412;28;20502;-77
2023/05/06 06:36:00;;;;;;;2.40;2.30;;;;;;;;;;5033997;28;20458;-78
2023/05/06 06:38:36;;;;;;;2.87;2.60;;;;;;;;;;5033144;28;20475;-76
2023/05/06 06:41:17;;;;;;;6.43;2.83;;;;;;;;;;5033793;28;20456;-78
2023/05/06 06:43:49;;;;;;;2.63;2.40;;;;;;;;;;5034239;28;21011;-76
2023/05/06 06:46:19;;;;;;;2.67;2.47;;;;;;;;;;5033504;28;20450;-77
2023/05/06 06:48:50;;;;;;;2.70;2.30;;;;;;;;;;5033477;28;20525;-77
2023/05/06 06:51:30;;;;;;;2.97;2.73;;;;;;;;;;5035572;28;20469;-78
2023/05/06 06:54:01;;;;;;;2.80;2.50;;;;;;;;;;5035838;28;20481;-79
2023/05/06 06:56:32;;;;;;;3.23;2.60;;;;;;;;;;5035284;28;20527;-79
2023/05/06 06:59:06;;;;;;;2.20;2.00;;;;;;;;;;5037303;28;20475;-78
2023/05/06 07:01:39;;;;;;;3.67;2.57;;;;;;;;;;5041100;28;20533;-77
2023/05/06 07:04:11;;;;;;;2.63;2.43;;;;;;;;;;5041628;28;20964;-78
2023/05/06 07:06:44;;;;;;;3.03;2.70;;;;;;;;;;5042288;28;20458;-76
2023/05/06 07:09:12;;;;;;;3.00;2.70;;;;;;;;;;5040381;28;20520;-76
2023/05/06 07:11:41;;;;;;;4.10;2.47;;;;;;;;;;5041091;28;20485;-77
2023/05/06 07:14:18;;;;;;;2.27;2.13;;;;;;;;;;5039129;28;21022;-77
2023/05/06 07:16:46;;;;;;;2.50;2.30;;;;;;;;;;5039144;28;20481;-76
2023/05/06 07:19:16;;;;;;;2.60;2.40;;;;;;;;;;5041166;28;20622;-77
2023/05/06 07:21:49;;;;;;;2.53;2.33;;;;;;;;;;5040429;28;20434;-76
2023/05/06 07:24:35;;;;;;;2.50;2.30;;;;;;;;;;5039795;28;21340;-77
2023/05/06 07:27:22;;;;;;;3.00;2.40;;;;;;;;;;5038420;28;20464;-77
2023/05/06 07:29:52;;;;;;;3.77;2.47;;;;;;;;;;5037872;28;20506;-77
2023/05/06 07:32:20;;;;;;;3.23;2.33;;;;;;;;;;5037561;28;20450;-78
2023/05/06 07:34:48;;;;;;;1.87;1.87;;;;;;;;;;5037661;28;20968;-76
2023/05/06 07:37:17;;;;;;;2.30;2.10;;;;;;;;;;5038382;28;20515;-78
2023/05/06 07:39:53;;;;;;;3.00;2.70;;;;;;;;;;5041121;28;20498;-77
2023/05/06 07:42:23;;;;;;;2.60;2.50;;;;;;;;;;5041350;28;20517;-76
2023/05/06 07:44:55;;;;;;;2.60;2.50;;;;;;;;;;5043553;28;20454;-78
2023/05/06 07:47:30;;;;;;;3.60;2.23;;;;;;;;;;5045495;28;20447;-77
2023/05/06 07:49:58;;;;;;;2.80;2.57;;;;;;;;;;5038784;28;20533;-76
2023/05/06 07:52:31;;;;;;;3.50;2.90;;;;;;;;;;5038037;28;20458;-80
2023/05/06 07:55:07;;;;;;;2.10;2.00;;;;;;;;;;5036819;28;20458;-76
2023/05/06 07:57:35;;;;;;;1.40;1.40;;;;;;;;;;5036553;28;20454;-79
2023/05/06 08:00:08;;;;;;;4.33;1.80;;;;;;;;;;5037425;28;21022;-76
2023/05/06 08:02:37;;;;;;;1.60;1.50;;;;;;;;;;5036739;28;20939;-77
2023/05/06 08:05:08;;;;;;;1.30;1.00;;;;;;;;;;5036314;28;20913;-77
2023/05/06 08:07:39;;;;;;;1.90;1.67;;;;;;;;;;5035319;28;20447;-76
2023/05/06 08:10:08;;;;;;;2.87;1.93;;;;;;;;;;5034920;28;21175;-76
2023/05/06 08:12:36;;;;;;;2.10;1.70;;;;;;;;;;5034557;28;20482;-78
2023/05/06 08:15:05;;;;;;;2.10;1.60;;;;;;;;;;5035769;28;20459;-77
2023/05/06 08:17:34;;;;;;;2.73;1.77;;;;;;;;;;5035003;28;20987;-79
2023/05/06 08:20:03;;;;;;;2.17;1.57;;;;;;;;;;5035566;28;20529;-78
2023/05/06 08:22:38;;;;;;;1.30;1.30;;;;;;;;;;5036263;28;20958;-78
2023/05/06 08:25:10;;;;;;;2.93;1.90;;;;;;;;;;5035946;28;20583;-77
2023/05/06 08:27:39;;;;;;;1.67;1.57;;;;;;;;;;5036042;28;20457;-79
2023/05/06 08:30:13;;;;;;;3.30;1.43;;;;;;;;;;5035172;28;20824;-76
2023/05/06 08:32:42;;;;;;;2.63;1.83;;;;;;;;;;5033877;28;20561;-77
2023/05/06 08:35:15;;;;;;;7.07;2.90;;;;;;;;;;5034480;28;20481;-78
2023/05/06 08:37:52;;;;;;;3.43;3.17;;;;;;;;;;5035140;28;20454;-78
2023/05/06 08:40:26;;;;;;;2.60;2.00;;;;;;;;;;5036423;28;20813;-77
2023/05/06 08:43:09;;;;;;;4.53;2.20;;;;;;;;;;5036288;28;20461;-78
2023/05/06 08:45:37;;;;;;;2.57;2.37;;;;;;;;;;5035318;28;20478;-75
2023/05/06 08:48:15;;;;;;;3.07;2.40;;;;;;;;;;5034769;28;20470;-77
2023/05/06 08:50:47;;;;;;;2.50;2.30;;;;;;;;;;5013632;28;21022;-78
2023/05/06 08:53:16;;;;;;;2.87;2.67;;;;;;;;;;5014635;28;20483;-77
2023/05/06 08:55:49;;;;;;;3.17;2.33;;;;;;;;;;5021296;28;20508;-76
2023/05/06 08:58:26;;;;;;;2.67;2.20;;;;;;;;;;5034555;28;20909;-77
2023/05/06 09:01:00;;;;;;;2.70;2.50;;;;;;;;;;5034084;28;20528;-77
2023/05/06 09:03:29;;;;;;;2.50;2.30;;;;;;;;;;5033133;28;20454;-78
2023/05/06 09:06:01;;;;;;;2.47;2.37;;;;;;;;;;5034140;28;20966;-78
2023/05/06 09:08:31;;;;;;;4.40;2.63;;;;;;;;;;5034461;28;20832;-79
2023/05/06 09:11:02;;;;;;;3.03;2.40;;;;;;;;;;5036948;28;20478;-77
2023/05/06 09:13:34;;;;;;;2.87;2.23;;;;;;;;;;5033839;28;20476;-77
2023/05/06 09:16:02;;;;;;;2.37;2.27;;;;;;;;;;5035279;28;20447;-78
2023/05/06 09:18:32;;;;;;;2.23;1.90;;;;;;;;;;5038288;28;20845;-78
2023/05/06 09:21:02;;;;;;;4.03;2.10;;;;;;;;;;5039093;28;21246;-79
2023/05/06 09:23:32;;;;;;;3.00;2.27;;;;;;;;;;5037313;28;20439;-79
2023/05/06 09:26:01;;;;;;;2.77;2.57;;;;;;;;;;5037983;28;20466;-79
2023/05/06 09:28:33;;;;;;;2.10;2.00;;;;;;;;;;5038321;28;21010;-77
2023/05/06 09:31:04;;;;;;;2.40;2.20;;;;;;;;;;5037119;28;20466;-78
2023/05/06 09:33:35;;;;;;;2.00;1.90;;;;;;;;;;5037152;28;21007;-79
2023/05/06 09:36:03;;;;;;;2.20;1.97;;;;;;;;;;5037671;28;20453;-78
2023/05/06 09:38:44;;;;;;;1.80;1.70;;;;;;;;;;5034992;28;20474;-79
2023/05/06 09:41:20;;;;;;;2.90;1.50;;;;;;;;;;5033611;28;20461;-78
2023/05/06 09:43:53;;;;;;;1.97;1.87;;;;;;;;;;5034552;28;21122;-80
2023/05/06 09:46:30;;;;;;;1.70;1.60;;;;;;;;;;5034011;28;21015;-79
2023/05/06 09:49:09;;;;;;;2.00;1.90;;;;;;;;;;5033988;28;20513;-78
2023/05/06 09:51:56;;;;;;;1.83;1.73;;;;;;;;;;5034382;28;20462;-79
2023/05/06 09:54:37;;;;;;;2.40;1.67;;;;;;;;;;5034925;28;20644;-76
2023/05/06 09:57:32;;;;;;;2.20;2.10;;;;;;;;;;5035432;28;20455;-79
2023/05/06 10:00:16;;;;;;;2.20;1.77;;;;;;;;;;5038530;28;20485;-78
2023/05/06 10:02:57;;;;;;;2.40;2.20;;;;;;;;;;5037343;28;20520;-78
2023/05/06 10:05:39;;;;;;;2.93;2.20;;;;;;;;;;5036852;28;20446;-78
2023/05/06 10:08:09;;;;;;;1.90;1.80;;;;;;;;;;5034898;28;20497;-79
2023/05/06 10:10:54;;;;;;;2.23;1.90;;;;;;;;;;5035358;28;20562;-81
2023/05/06 10:13:32;;;;;;;1.73;1.63;;;;;;;;;;5035413;28;20485;-81
2023/05/06 10:16:21;;;;;;;2.17;1.90;;;;;;;;;;5035764;28;20454;-77
2023/05/06 10:19:00;;;;;;;2.07;1.77;;;;;;;;;;5038670;28;20463;-80
2023/05/06 10:21:31;;;;;;;2.07;1.87;;;;;;;;;;5037767;28;20969;-77
2023/05/06 10:24:07;;;;;;;2.10;2.00;;;;;;;;;;5036772;28;20473;-77
2023/05/06 10:26:39;;;;;;;1.90;1.80;;;;;;;;;;5036632;28;20534;-78
2023/05/06 10:29:24;;;;;;;3.40;1.80;;;;;;;;;;5037294;28;20987;-78
2023/05/06 10:31:57;;;;;;;1.77;1.70;;;;;;;;;;5037711;28;20465;-77
2023/05/06 10:34:38;;;;;;;1.60;1.50;;;;;;;;;;5036830;28;20489;-78
2023/05/06 10:37:10;;;;;;;2.10;1.50;;;;;;;;;;5038211;28;20516;-78
2023/05/06 10:39:45;;;;;;;2.30;1.60;;;;;;;;;;5037872;28;20849;-79
2023/05/06 10:42:18;;;;;;;1.70;1.60;;;;;;;;;;5037649;28;20438;-78
2023/05/06 10:45:05;;;;;;;1.80;1.70;;;;;;;;;;5037605;28;20446;-77
2023/05/06 10:47:54;;;;;;;1.50;1.40;;;;;;;;;;5039464;28;20458;-78
2023/05/06 10:50:30;;;;;;;1.70;1.37;;;;;;;;;;5038129;28;20447;-77
2023/05/06 10:56:23;;;;;;;1.90;1.80;;;;;;;;;;5025879;28;20454;-78
2023/05/06 10:59:13;;;;;;;2.20;2.00;;;;;;;;;;5039310;28;20488;-76
2023/05/06 11:02:09;;;;;;;;;;;;;;;;;;;;;
2023/05/06 11:04:42;;;;;;;2.10;2.00;;;;;;;;;;5036739;28;20827;-78
2023/05/06 11:07:15;;;;;;;1.80;1.70;;;;;;;;;;5037278;28;20488;-77
2023/05/06 11:10:00;;;;;;;3.30;1.60;;;;;;;;;;5037450;28;20467;-78
2023/05/06 11:12:55;;;;;;;3.27;1.37;;;;;;;;;;5038261;28;20481;-77
2023/05/06 11:15:31;;;;;;;2.23;1.80;;;;;;;;;;5040998;28;20477;-77
2023/05/06 11:18:02;;;;;;;1.87;1.70;;;;;;;;;;5038420;28;20466;-78
2023/05/06 11:20:32;;;;;;;1.90;1.80;;;;;;;;;;5038248;28;20939;-76
2023/05/06 11:23:03;;;;;;;2.17;1.67;;;;;;;;;;5038821;28;20446;-77
2023/05/06 11:25:43;;;;;;;1.80;1.50;;;;;;;;;;5038926;28;20427;-77
2023/05/06 11:28:21;;;;;;;1.60;1.50;;;;;;;;;;5039110;28;20474;-77
2023/05/06 11:30:55;;;;;;;2.03;1.40;;;;;;;;;;5038828;28;20461;-77
2023/05/06 11:33:25;;;;;;;2.73;1.90;;;;;;;;;;5039449;28;20446;-79
2023/05/06 11:35:53;;;;;;;1.97;1.87;;;;;;;;;;5038301;28;20489;-77
2023/05/06 11:38:22;;;;;;;1.90;1.50;;;;;;;;;;5037221;28;20501;-76
2023/05/06 11:40:51;;;;;;;1.60;1.50;;;;;;;;;;5039272;28;20454;-80
2023/05/06 11:43:22;;;;;;;1.53;1.50;;;;;;;;;;5041597;28;20501;-79
2023/05/06 11:45:55;;;;;;;2.37;1.90;;;;;;;;;;5042732;28;20449;-79
2023/05/06 11:48:25;;;;;;;1.87;1.70;;;;;;;;;;5045991;28;20475;-78
2023/05/06 11:50:56;;;;;;;1.80;1.70;;;;;;;;;;5047555;28;20454;-76
2023/05/06 11:53:30;;;;;;;1.80;1.70;;;;;;;;;;5048843;28;20465;-76
2023/05/06 11:55:58;;;;;;;1.93;1.83;;;;;;;;;;5048889;28;20548;-77
2023/05/06 11:58:37;;;;;;;1.87;1.87;;;;;;;;;;5049364;28;20473;-78
2023/05/06 12:01:07;;;;;;;1.87;1.77;;;;;;;;;;5053525;28;20505;-80
2023/05/06 12:03:38;;;;;;;2.57;1.70;;;;;;;;;;5055648;28;20446;-79
2023/05/06 12:06:15;;;;;;;4.30;2.40;;;;;;;;;;5055736;28;20459;-76
2023/05/06 12:08:48;;;;;;;1.63;1.53;;;;;;;;;;5056193;28;20513;-77
2023/05/06 12:11:18;;;;;;;1.80;1.70;;;;;;;;;;5057256;28;20453;-77
2023/05/06 12:13:51;;;;;;;2.00;1.90;;;;;;;;;;5057852;28;20415;-80
2023/05/06 12:16:21;;;;;;;1.87;1.73;;;;;;;;;;5058263;28;20423;-79
2023/05/06 12:18:52;;;;;;;1.87;1.70;;;;;;;;;;5058368;28;20451;-74
2023/05/06 12:21:23;;;;;;;2.07;1.67;;;;;;;;;;5058021;28;20688;-79
2023/05/06 12:23:59;;;;;;;2.20;2.10;;;;;;;;;;5057771;28;20430;-78
2023/05/06 12:26:30;;;;;;;2.10;2.00;;;;;;;;;;5057686;28;20465;-78
2023/05/06 12:29:14;;;;;;;2.27;2.17;;;;;;;;;;5055575;28;20486;-78
2023/05/06 12:31:46;;;;;;;2.60;2.30;;;;;;;;;;5039588;28;20451;-78
2023/05/06 12:34:20;;;;;;;3.57;1.53;;;;;;;;;;5038911;28;20488;-79
2023/05/06 12:36:52;;;;;;;2.00;1.80;;;;;;;;;;5040642;28;20449;-78
2023/05/06 12:39:40;;;;;;;2.13;1.83;;;;;;;;;;5040495;28;20470;-77
2023/05/06 12:42:09;;;;;;;1.83;1.73;;;;;;;;;;5041626;28;20455;-78
2023/05/06 12:44:43;;;;;;;2.50;1.83;;;;;;;;;;5042465;28;20455;-78
2023/05/06 12:47:24;;;;;;;2.27;2.07;;;;;;;;;;5044025;28;20933;-78
2023/05/06 12:50:00;;;;;;;2.50;1.87;;;;;;;;;;5043921;28;20494;-79
2023/05/06 12:52:34;;;;;;;2.10;1.80;;;;;;;;;;5043559;28;20461;-77
2023/05/06 12:55:14;;;;;;;2.53;1.77;;;;;;;;;;5041283;28;20471;-80
2023/05/06 12:57:42;;;;;;;1.80;1.70;;;;;;;;;;5040327;28;20839;-79
2023/05/06 13:00:15;;;;;;;1.77;1.67;;;;;;;;;;5042770;28;20454;-78
2023/05/06 13:02:44;;;;;;;2.10;1.93;;;;;;;;;;5044541;28;20453;-79
2023/05/06 13:05:23;;;;;;;1.47;1.23;;;;;;;;;;5043899;28;20435;-77
2023/05/06 13:07:57;;;;;;;2.23;2.03;;;;;;;;;;5043029;28;20474;-77
2023/05/06 13:10:30;;;;;;;1.70;1.60;;;;;;;;;;5042163;28;20488;-78
2023/05/06 13:15:50;;;;;;;1.80;1.70;;;;;;;;;;5040645;28;20565;-80
2023/05/06 13:18:19;;;;;;;1.93;1.83;;;;;;;;;;5039564;28;20473;-79
2023/05/06 13:20:51;;;;;;;1.70;1.53;;;;;;;;;;5038700;28;20451;-78
2023/05/06 13:23:23;;;;;;;1.73;1.63;;;;;;;;;;5039865;28;20870;-78
2023/05/06 13:25:54;;;;;;;1.80;1.40;;;;;;;;;;5040212;28;20461;-80
2023/05/06 13:28:22;;;;;;;2.60;1.63;;;;;;;;;;5041941;28;20482;-78
2023/05/06 13:30:56;;;;;;;2.40;1.70;;;;;;;;;;5042531;28;20423;-79
2023/05/06 13:33:24;;;;;;;1.97;1.73;;;;;;;;;;5040366;28;20985;-78
2023/05/06 13:36:01;;;;;;;1.70;1.60;;;;;;;;;;5041370;28;20481;-80
2023/05/06 13:38:33;;;;;;;2.83;1.63;;;;;;;;;;5039886;28;20474;-79
2023/05/06 13:41:04;;;;;;;1.83;1.70;;;;;;;;;;5039755;28;20458;-81
2023/05/06 13:43:39;;;;;;;2.93;1.20;;;;;;;;;;5040642;28;20458;-78
2023/05/06 13:46:18;;;;;;;1.43;1.33;;;;;;;;;;5041778;28;20450;-80
2023/05/06 13:48:50;;;;;;;1.60;1.50;;;;;;;;;;5042848;28;20546;-80
2023/05/06 13:51:26;;;;;;;1.67;1.57;;;;;;;;;;5047798;28;20514;-79
2023/05/06 13:53:58;;;;;;;1.53;1.43;;;;;;;;;;5048256;28;20454;-79
2023/05/06 13:56:53;;;;;;;1.80;1.70;;;;;;;;;;5050482;28;20453;-79
2023/05/06 13:59:25;;;;;;;1.50;1.40;;;;;;;;;;5049178;28;20497;-78
2023/05/06 14:04:57;;;;;;;1.87;1.70;;;;;;;;;;5035225;28;20427;-80
2023/05/06 14:07:31;;;;;;;5.53;1.70;;;;;;;;;;5048724;28;20442;-79
2023/05/06 14:09:59;;;;;;;1.43;1.30;;;;;;;;;;5050293;28;20450;-78
2023/05/06 14:12:33;;;;;;;3.13;1.60;;;;;;;;;;5049947;28;20454;-80
2023/05/06 14:15:13;;;;;;;1.73;1.30;;;;;;;;;;5051584;28;20525;-79
2023/05/06 14:17:44;;;;;;;1.93;1.50;;;;;;;;;;5047711;28;20442;-79
2023/05/06 14:20:17;;;;;;;1.30;1.30;;;;;;;;;;5049481;28;20457;-79
2023/05/06 14:22:48;;;;;;;1.50;1.40;;;;;;;;;;5049420;28;20522;-78
2023/05/06 14:25:26;;;;;;;1.73;1.60;;;;;;;;;;5050979;28;20450;-78
2023/05/06 14:27:57;;;;;;;1.37;1.27;;;;;;;;;;5046735;28;20458;-78
2023/05/06 14:30:33;;;;;;;1.60;1.50;;;;;;;;;;5049250;28;20447;-78
2023/05/06 14:33:08;;;;;;;1.20;1.10;;;;;;;;;;5049919;28;20954;-79
2023/05/06 14:35:50;;;;;;;1.37;1.27;;;;;;;;;;5050824;28;20478;-77
2023/05/06 14:38:32;;;;;;;1.40;1.17;;;;;;;;;;5050968;28;20546;-78
2023/05/06 14:41:14;;;;;;;1.40;1.30;;;;;;;;;;5051047;28;20458;-80
2023/05/06 14:43:42;;;;;;;1.10;1.10;;;;;;;;;;5047386;28;20457;-78
2023/05/06 14:46:16;;;;;;;1.47;1.20;;;;;;;;;;5044700;28;20470;-78
2023/05/06 14:48:56;;;;;;;1.07;1.07;;;;;;;;;;5049371;28;20481;-77
2023/05/06 14:51:33;;;;;;;1.17;1.17;;;;;;;;;;5050773;28;20438;-78
2023/05/06 14:54:12;;;;;;;2.20;1.40;;;;;;;;;;5050467;28;20458;-77
2023/05/06 14:56:48;;;;;;;2.40;1.10;;;;;;;;;;5044271;28;20889;-78
2023/05/06 14:59:25;;;;;;;1.10;1.10;;;;;;;;;;5036914;28;20831;-78
2023/05/06 15:01:55;;;;;;;2.83;1.40;;;;;;;;;;5037857;28;20461;-79
2023/05/06 15:04:28;;;;;;;1.40;1.30;;;;;;;;;;5038742;28;20474;-79
2023/05/06 15:06:59;;;;;;;1.80;1.10;;;;;;;;;;5038439;28;20928;-79
2023/05/06 15:09:33;;;;;;;1.33;1.23;;;;;;;;;;5041616;28;20478;-77
2023/05/06 15:12:00;;;;;;;2.70;1.10;;;;;;;;;;5040017;28;20474;-80
2023/05/06 15:14:28;;;;;;;1.50;1.17;;;;;;;;;;5034436;28;20446;-79
2023/05/06 15:16:59;;;;;;;1.70;1.47;;;;;;;;;;5039267;28;20446;-79
2023/05/06 15:19:32;;;;;;;1.27;1.17;;;;;;;;;;5039092;28;20493;-79
2023/05/06 15:22:14;;;;;;;1.47;1.37;;;;;;;;;;5045401;28;20442;-78
2023/05/06 15:24:56;;;;;;;1.50;1.40;;;;;;;;;;5048310;28;20490;-78
2023/05/06 15:27:31;;;;;;;0.97;0.97;;;;;;;;;;5047402;28;20450;-80
2023/05/06 15:30:03;;;;;;;2.03;1.40;;;;;;;;;;5046036;28;20465;-77
2023/05/06 15:32:46;;;;;;;1.47;1.37;;;;;;;;;;5047324;28;20477;-81
2023/05/06 15:35:19;;;;;;;1.47;1.37;;;;;;;;;;5049425;28;20474;-78
2023/05/06 15:37:57;;;;;;;1.83;1.30;;;;;;;;;;5052659;28;20924;-76
2023/05/06 15:40:39;;;;;;;2.17;1.50;;;;;;;;;;5056800;28;20476;-78
2023/05/06 15:43:10;;;;;;;1.40;1.30;;;;;;;;;;5052161;28;20478;-78
2023/05/06 15:45:39;;;;;;;1.77;1.17;;;;;;;;;;5044838;28;20462;-79
2023/05/06 15:48:10;;;;;;;2.00;1.10;;;;;;;;;;5044898;28;20541;-79
2023/05/06 15:50:43;;;;;;;1.67;1.00;;;;;;;;;;5046029;28;20569;-80
2023/05/06 15:53:23;;;;;;;1.30;1.07;;;;;;;;;;5045954;28;20558;-80
2023/05/06 15:55:54;;;;;;;2.00;1.53;;;;;;;;;;5046055;28;20542;-79
2023/05/06 15:58:32;;;;;;;1.43;1.33;;;;;;;;;;5052606;28;20466;-78
2023/05/06 16:01:02;;;;;;;2.50;1.50;;;;;;;;;;5058784;28;20411;-79
2023/05/06 16:03:31;;;;;;;1.40;1.30;;;;;;;;;;5058549;28;20495;-79